Terminal Aerodrome Forecast
Issued by NWS

Home | Current Version | Previous Version | Text Only | Print | Product List | Glossary On
Versions: 1 2 3 4 5 6 7 8 9 10 11 12 13 14 15 16 17 18 19
000
FTUS43 KDLH 300810 AAA
TAFHYR
TAF AMD
KHYR 300810Z 3008/3106 19004KT P6SM BKN007
     FM301000 00000KT 1 1/2SM BR BKN007
     FM301500 21010KT P6SM SCT050=

USA.gov is the U.S. government's official web portal to all federal, state and local government web resources and services.